createdAt,value
2023-12-29T00:02:11.222Z,2.90
2023-12-29T00:05:14.648Z,8.43
2023-12-29T00:08:16.680Z,6.07
2023-12-29T00:11:20.354Z,3.10
2023-12-29T00:14:22.474Z,2.50
2023-12-29T00:17:24.839Z,1.50
2023-12-29T00:20:37.339Z,1.77
2023-12-29T00:23:43.294Z,1.30
2023-12-29T00:26:45.353Z,1.10
2023-12-29T00:29:47.374Z,1.20
2023-12-29T00:32:49.408Z,0.73
2023-12-29T00:35:51.490Z,0.97
2023-12-29T00:38:53.535Z,0.90
2023-12-29T00:41:57.862Z,1.20
2023-12-29T00:44:59.850Z,0.93
2023-12-29T00:48:05.482Z,0.80
2023-12-29T00:51:07.787Z,0.90
2023-12-29T00:54:10.013Z,0.90
2023-12-29T00:57:12.109Z,0.67
2023-12-29T01:00:15.082Z,0.73
2023-12-29T01:03:17.141Z,0.93
2023-12-29T01:06:19.376Z,0.70
2023-12-29T01:09:21.323Z,0.60
2023-12-29T01:12:23.585Z,0.77
2023-12-29T01:15:25.555Z,0.90
2023-12-29T01:18:27.749Z,0.70
2023-12-29T01:21:30.031Z,0.70
2023-12-29T01:24:39.926Z,0.90
2023-12-29T01:27:45.437Z,0.90
2023-12-29T01:30:47.612Z,0.90
2023-12-29T01:33:49.662Z,0.77
2023-12-29T01:36:52.674Z,0.60
2023-12-29T01:39:54.773Z,0.60
2023-12-29T01:42:56.982Z,0.57
2023-12-29T01:45:59.443Z,0.53
2023-12-29T01:49:04.162Z,0.63
2023-12-29T01:52:06.723Z,0.70
2023-12-29T01:55:12.662Z,0.40
2023-12-29T01:58:15.264Z,0.53
2023-12-29T02:01:20.654Z,0.60
2023-12-29T02:04:25.670Z,0.70
2023-12-29T02:07:31.932Z,0.47
2023-12-29T02:10:34.038Z,0.60
2023-12-29T02:13:36.481Z,0.80
2023-12-29T02:16:57.068Z,0.50
2023-12-29T02:19:59.347Z,0.50
2023-12-29T02:23:01.727Z,0.50
2023-12-29T02:26:09.617Z,0.60
2023-12-29T02:29:16.022Z,0.60
2023-12-29T02:32:19.829Z,0.80
2023-12-29T02:35:26.294Z,0.70
2023-12-29T02:38:29.540Z,0.60
2023-12-29T02:41:31.608Z,0.60
2023-12-29T02:44:33.608Z,0.50
2023-12-29T02:47:35.648Z,0.50
2023-12-29T02:50:37.709Z,0.90
2023-12-29T02:53:39.744Z,0.80
2023-12-29T02:56:47.687Z,0.40
2023-12-29T02:59:49.724Z,0.40
2023-12-29T03:02:51.791Z,1.23
2023-12-29T03:05:53.920Z,0.83
2023-12-29T03:08:56.576Z,1.17
2023-12-29T03:11:58.588Z,1.10
2023-12-29T03:15:00.754Z,1.10
2023-12-29T03:18:03.073Z,1.27
2023-12-29T03:21:06.258Z,1.03
2023-12-29T03:24:08.852Z,1.57
2023-12-29T03:27:11.308Z,1.23
2023-12-29T03:30:13.652Z,0.60
2023-12-29T03:33:16.876Z,0.50
2023-12-29T03:36:18.988Z,1.17
2023-12-29T03:39:21.048Z,1.40
2023-12-29T03:42:23.050Z,1.10
2023-12-29T03:45:25.021Z,0.80
2023-12-29T03:48:27.292Z,0.80
2023-12-29T03:51:29.475Z,0.80
2023-12-29T03:54:31.863Z,1.00
2023-12-29T03:57:34.001Z,0.50
2023-12-29T04:00:37.912Z,0.43
2023-12-29T04:03:40.156Z,0.60
2023-12-29T04:06:42.419Z,1.30
2023-12-29T04:09:44.768Z,1.40
2023-12-29T04:12:46.892Z,0.73
2023-12-29T04:15:49.027Z,1.00
2023-12-29T04:18:51.108Z,1.30
2023-12-29T04:21:53.553Z,1.17
2023-12-29T04:24:56.059Z,1.20
2023-12-29T04:27:58.442Z,1.20
2023-12-29T04:31:00.948Z,1.10
2023-12-29T04:34:03.893Z,1.47
2023-12-29T04:37:06.025Z,1.47
2023-12-29T04:40:09.309Z,1.23
2023-12-29T04:43:11.532Z,1.97
2023-12-29T04:46:13.805Z,1.60
2023-12-29T04:49:15.939Z,1.23
2023-12-29T04:52:18.109Z,1.80
2023-12-29T04:55:20.234Z,1.40
2023-12-29T04:58:22.431Z,1.50
2023-12-29T05:01:24.554Z,1.50
2023-12-29T05:04:26.720Z,1.60
2023-12-29T05:07:28.754Z,1.47
2023-12-29T05:10:31.461Z,1.20
2023-12-29T05:13:33.537Z,2.00
2023-12-29T05:16:36.063Z,1.40
2023-12-29T05:19:38.246Z,1.50
2023-12-29T05:22:40.326Z,1.33
2023-12-29T05:25:42.567Z,1.50
2023-12-29T05:28:45.432Z,1.33
2023-12-29T05:31:47.527Z,1.40
2023-12-29T05:34:50.542Z,0.87
2023-12-29T05:37:52.602Z,1.00
2023-12-29T05:40:54.642Z,3.63
2023-12-29T05:43:59.176Z,4.60
2023-12-29T05:47:01.251Z,2.90
2023-12-29T05:50:04.078Z,2.07
2023-12-29T05:53:07.589Z,1.80
2023-12-29T05:56:10.600Z,1.77
2023-12-29T05:59:12.737Z,1.57
2023-12-29T06:02:21.969Z,1.63
2023-12-29T06:05:24.075Z,1.57
2023-12-29T06:08:26.205Z,1.83
2023-12-29T06:11:28.984Z,2.53
2023-12-29T06:14:30.957Z,2.67
2023-12-29T06:17:34.095Z,1.80
2023-12-29T06:20:36.281Z,1.40
2023-12-29T06:23:38.307Z,1.77
2023-12-29T06:26:44.715Z,1.60
2023-12-29T06:29:47.965Z,1.50
2023-12-29T06:32:50.321Z,1.77
2023-12-29T06:35:52.935Z,1.47
2023-12-29T06:38:55.575Z,0.90
2023-12-29T06:41:57.972Z,1.00
2023-12-29T06:44:59.994Z,1.30
2023-12-29T06:48:02.364Z,1.30
2023-12-29T06:51:04.772Z,1.40
2023-12-29T06:54:06.850Z,1.20
2023-12-29T06:57:11.139Z,2.63
2023-12-29T07:00:13.558Z,1.20
2023-12-29T07:03:16.607Z,1.27
2023-12-29T07:06:18.800Z,1.13
2023-12-29T07:09:20.773Z,1.20
2023-12-29T07:12:22.930Z,0.87
2023-12-29T07:15:24.979Z,0.70
2023-12-29T07:18:27.920Z,1.10
2023-12-29T07:21:29.960Z,0.90
2023-12-29T07:24:32.789Z,1.17
2023-12-29T07:27:34.804Z,1.00
2023-12-29T07:30:37.295Z,1.33
2023-12-29T07:33:39.431Z,1.00
2023-12-29T07:36:41.885Z,1.10
2023-12-29T07:39:44.136Z,1.10
2023-12-29T07:42:48.152Z,1.20
2023-12-29T07:45:50.231Z,1.20
2023-12-29T07:48:52.554Z,1.10
2023-12-29T07:51:54.818Z,1.50
2023-12-29T07:54:56.949Z,2.70
2023-12-29T07:57:59.359Z,1.50
2023-12-29T08:01:01.894Z,1.40
2023-12-29T08:04:04.868Z,1.10
2023-12-29T08:07:07.302Z,0.97
2023-12-29T08:10:10.177Z,0.80
2023-12-29T08:13:12.411Z,1.10
2023-12-29T08:16:14.595Z,1.17
2023-12-29T08:19:17.665Z,4.10
2023-12-29T08:22:21.174Z,1.60
2023-12-29T08:25:24.003Z,1.27
2023-12-29T08:28:26.368Z,1.33
2023-12-29T08:31:30.988Z,1.20
2023-12-29T08:34:33.471Z,1.40
2023-12-29T08:37:35.964Z,1.43
2023-12-29T08:40:38.018Z,1.63
2023-12-29T08:43:40.429Z,1.57
2023-12-29T08:46:42.839Z,2.10
2023-12-29T08:49:45.025Z,2.00
2023-12-29T08:52:47.099Z,2.03
2023-12-29T08:55:49.739Z,1.50
2023-12-29T08:58:51.719Z,3.00
2023-12-29T09:01:53.956Z,1.73
2023-12-29T09:04:56.022Z,1.80
2023-12-29T09:07:58.387Z,1.50
2023-12-29T09:11:00.583Z,1.37
2023-12-29T09:14:02.894Z,6.57
2023-12-29T09:17:06.348Z,4.40
2023-12-29T09:20:11.784Z,2.80
2023-12-29T09:23:14.379Z,2.17
2023-12-29T09:26:16.409Z,1.80
2023-12-29T09:29:18.356Z,1.50
2023-12-29T09:32:20.499Z,2.13
2023-12-29T09:35:22.642Z,1.80
2023-12-29T09:38:24.891Z,1.17
2023-12-29T09:41:27.557Z,1.30
2023-12-29T09:44:32.925Z,1.43
2023-12-29T09:47:37.788Z,1.20
2023-12-29T09:50:40.948Z,1.37
2023-12-29T09:53:43.211Z,1.40
2023-12-29T09:56:46.306Z,1.30
2023-12-29T09:59:53.103Z,1.20
2023-12-29T10:02:55.802Z,1.20
2023-12-29T10:06:01.225Z,1.40
2023-12-29T10:09:06.004Z,1.37
2023-12-29T10:12:11.769Z,1.20
2023-12-29T10:15:20.287Z,1.20
2023-12-29T10:18:51.730Z,1.23
2023-12-29T10:22:35.486Z,1.20
2023-12-29T10:25:37.627Z,1.20
2023-12-29T10:28:40.125Z,1.33
2023-12-29T10:31:42.323Z,1.67
2023-12-29T10:34:44.580Z,1.10
2023-12-29T10:37:46.644Z,1.13
2023-12-29T10:40:49.124Z,1.20
2023-12-29T10:43:53.777Z,1.60
2023-12-29T10:46:56.773Z,1.13
2023-12-29T10:50:02.258Z,0.93
2023-12-29T10:53:18.862Z,1.80
2023-12-29T10:56:23.730Z,1.03
2023-12-29T10:59:25.891Z,1.40
2023-12-29T11:02:29.905Z,1.30
2023-12-29T11:05:32.847Z,2.17
2023-12-29T11:08:37.966Z,2.23
2023-12-29T11:11:40.333Z,1.70
2023-12-29T11:14:45.740Z,1.67
2023-12-29T11:17:51.665Z,1.70
2023-12-29T11:20:54.592Z,1.40
2023-12-29T11:23:57.289Z,1.70
2023-12-29T11:26:59.342Z,1.40
2023-12-29T11:30:02.841Z,1.47
2023-12-29T11:33:39.932Z,1.17
2023-12-29T11:36:47.513Z,1.20
2023-12-29T11:40:20.622Z,1.87
2023-12-29T11:43:23.524Z,1.13
2023-12-29T11:46:44.807Z,1.20
2023-12-29T11:50:02.946Z,1.00
2023-12-29T11:53:05.418Z,0.90
2023-12-29T11:56:16.875Z,0.97
2023-12-29T11:59:26.518Z,0.80
2023-12-29T12:02:30.816Z,1.50
2023-12-29T12:05:49.728Z,1.60
2023-12-29T12:09:26.824Z,2.63
2023-12-29T12:12:42.298Z,1.87
2023-12-29T12:15:44.597Z,1.07
2023-12-29T12:18:46.657Z,1.00
2023-12-29T12:21:50.413Z,1.37
2023-12-29T12:24:57.595Z,1.40
2023-12-29T12:28:00.721Z,1.00
2023-12-29T12:31:10.504Z,0.97
2023-12-29T12:34:12.770Z,1.20
2023-12-29T12:37:20.411Z,0.80
2023-12-29T12:40:29.206Z,1.13
2023-12-29T12:43:32.693Z,3.60
2023-12-29T12:47:03.103Z,2.73
2023-12-29T12:50:06.910Z,1.80
2023-12-29T12:53:10.771Z,1.93
2023-12-29T12:56:12.924Z,1.63
2023-12-29T12:59:16.168Z,1.17
2023-12-29T13:02:18.988Z,1.20
2023-12-29T13:05:21.442Z,1.20
2023-12-29T13:08:30.257Z,0.90
2023-12-29T13:11:36.967Z,1.10
2023-12-29T13:14:39.307Z,1.00
2023-12-29T13:17:55.535Z,0.77
2023-12-29T13:20:57.652Z,0.93
2023-12-29T13:24:05.047Z,1.60
2023-12-29T13:27:08.538Z,1.23
2023-12-29T13:30:11.728Z,1.50
2023-12-29T13:33:29.065Z,0.90
2023-12-29T13:36:39.939Z,1.03
2023-12-29T13:40:17.109Z,1.00
2023-12-29T13:43:20.077Z,1.10
2023-12-29T13:46:23.049Z,0.90
2023-12-29T13:49:25.329Z,1.00
2023-12-29T13:52:27.388Z,1.10
2023-12-29T13:55:29.505Z,1.30
2023-12-29T13:58:32.023Z,1.20
2023-12-29T14:01:38.916Z,1.03
2023-12-29T14:04:41.473Z,1.70
2023-12-29T14:07:50.108Z,1.10
2023-12-29T14:10:52.704Z,1.00
2023-12-29T14:13:54.810Z,1.17
2023-12-29T14:16:57.182Z,0.90
2023-12-29T14:20:05.446Z,1.37
2023-12-29T14:23:09.233Z,1.20
2023-12-29T14:26:11.338Z,0.90
2023-12-29T14:29:13.753Z,1.10
2023-12-29T14:32:15.880Z,0.90
2023-12-29T14:35:18.706Z,1.00
2023-12-29T14:38:22.146Z,0.80
2023-12-29T14:41:25.335Z,1.73
2023-12-29T14:44:27.958Z,0.70
2023-12-29T14:47:31.165Z,0.98
2023-12-29T14:50:33.222Z,1.07
2023-12-29T14:53:35.389Z,0.80
2023-12-29T14:56:37.409Z,0.90
2023-12-29T14:59:42.100Z,0.93
2023-12-29T15:02:47.265Z,0.83
2023-12-29T15:05:51.686Z,0.87
2023-12-29T15:08:53.799Z,1.00
2023-12-29T15:11:56.326Z,0.77
2023-12-29T15:14:58.658Z,1.10
2023-12-29T15:18:01.301Z,1.00
2023-12-29T15:21:03.538Z,0.70
2023-12-29T15:24:06.525Z,0.90
2023-12-29T15:27:08.613Z,0.90
2023-12-29T15:30:13.151Z,0.70
2023-12-29T15:33:15.609Z,0.77
2023-12-29T15:36:21.841Z,1.08
2023-12-29T15:39:23.845Z,2.87
2023-12-29T15:42:25.864Z,1.80
2023-12-29T15:45:27.932Z,1.90
2023-12-29T15:48:29.976Z,1.90
2023-12-29T15:51:32.190Z,2.73
2023-12-29T15:54:34.581Z,1.53
2023-12-29T15:57:38.030Z,1.10
2023-12-29T16:00:45.379Z,0.90
2023-12-29T16:03:48.910Z,0.97
2023-12-29T16:06:50.946Z,0.80
2023-12-29T16:09:53.027Z,1.00
2023-12-29T16:12:55.687Z,1.20
2023-12-29T16:15:57.821Z,1.57
2023-12-29T16:19:04.323Z,1.23
2023-12-29T16:22:06.569Z,0.80
2023-12-29T16:25:08.763Z,0.87
2023-12-29T16:28:10.885Z,0.60
2023-12-29T16:31:14.009Z,1.23
2023-12-29T16:34:16.246Z,2.50
2023-12-29T16:37:18.454Z,2.60
2023-12-29T16:40:20.663Z,2.33
2023-12-29T16:43:23.216Z,1.30
2023-12-29T16:46:26.231Z,1.80
2023-12-29T16:49:28.387Z,1.60
2023-12-29T16:52:30.678Z,1.07
2023-12-29T16:55:32.724Z,1.20
2023-12-29T16:58:43.378Z,1.80
2023-12-29T17:01:46.061Z,2.33
2023-12-29T17:04:48.933Z,1.90
2023-12-29T17:07:51.096Z,2.60
2023-12-29T17:10:53.436Z,3.10
2023-12-29T17:13:55.666Z,2.40
2023-12-29T17:16:57.767Z,2.13
2023-12-29T17:19:59.928Z,2.07
2023-12-29T17:23:02.856Z,1.67
2023-12-29T17:26:10.624Z,2.33
2023-12-29T17:29:13.098Z,2.93
2023-12-29T17:32:15.981Z,1.60
2023-12-29T17:35:22.124Z,1.60
2023-12-29T17:38:26.328Z,3.40
2023-12-29T17:41:29.154Z,5.10
2023-12-29T17:44:31.387Z,4.77
2023-12-29T17:47:33.923Z,4.80
2023-12-29T17:50:36.499Z,1.70
2023-12-29T17:53:39.211Z,8.80
2023-12-29T17:56:41.200Z,9.47
2023-12-29T17:59:44.026Z,8.13
2023-12-29T18:02:45.991Z,4.70
2023-12-29T18:05:52.442Z,3.57
2023-12-29T18:08:56.638Z,12.60
2023-12-29T18:11:58.755Z,9.97
2023-12-29T18:15:01.680Z,7.87
2023-12-29T18:18:04.243Z,5.40
2023-12-29T18:21:06.552Z,4.03
2023-12-29T18:24:09.456Z,4.00
2023-12-29T18:27:11.558Z,3.70
2023-12-29T18:30:14.289Z,2.67
2023-12-29T18:33:16.576Z,2.63
2023-12-29T18:36:21.205Z,2.20
2023-12-29T18:39:23.200Z,2.73
2023-12-29T18:42:25.320Z,2.30
2023-12-29T18:45:27.659Z,3.03
2023-12-29T18:48:34.572Z,2.10
2023-12-29T18:51:36.673Z,2.50
2023-12-29T18:54:38.852Z,2.30
2023-12-29T18:57:40.884Z,2.07
2023-12-29T19:00:43.464Z,3.30
2023-12-29T19:03:45.998Z,3.30
2023-12-29T19:06:49.006Z,3.30
2023-12-29T19:09:56.077Z,4.67
2023-12-29T19:12:59.168Z,3.87
2023-12-29T19:16:03.143Z,4.30
2023-12-29T19:19:05.466Z,2.47
2023-12-29T19:22:07.532Z,3.17
2023-12-29T19:25:11.583Z,6.17
2023-12-29T19:28:13.601Z,5.23
2023-12-29T19:31:15.815Z,3.00
2023-12-29T19:34:20.690Z,3.90
2023-12-29T19:37:22.834Z,4.37
2023-12-29T19:40:26.607Z,2.13
2023-12-29T19:43:28.960Z,2.30
2023-12-29T19:46:31.290Z,1.83
2023-12-29T19:49:39.378Z,2.87
2023-12-29T19:52:44.766Z,5.63
2023-12-29T19:55:47.736Z,3.00
2023-12-29T19:58:52.799Z,5.27
2023-12-29T20:01:55.093Z,4.90
2023-12-29T20:04:57.681Z,5.80
2023-12-29T20:07:59.976Z,3.80
2023-12-29T20:11:02.753Z,3.27
2023-12-29T20:14:07.488Z,2.00
2023-12-29T20:17:10.226Z,2.23
2023-12-29T20:20:14.844Z,2.47
2023-12-29T20:23:16.859Z,2.10
2023-12-29T20:26:23.872Z,1.93
2023-12-29T20:29:25.908Z,1.53
2023-12-29T20:32:28.476Z,1.50
2023-12-29T20:35:31.466Z,1.70
2023-12-29T20:38:33.813Z,1.60
2023-12-29T20:41:35.829Z,1.60
2023-12-29T20:44:38.997Z,1.20
2023-12-29T20:47:42.366Z,1.50
2023-12-29T20:50:44.407Z,0.90
2023-12-29T20:53:47.677Z,4.77
2023-12-29T20:56:49.713Z,2.80
2023-12-29T20:59:52.687Z,1.90
2023-12-29T21:02:54.731Z,1.57
2023-12-29T21:05:56.729Z,1.50
2023-12-29T21:09:00.049Z,2.27
2023-12-29T21:12:02.187Z,1.50
2023-12-29T21:15:04.809Z,1.20
2023-12-29T21:18:06.997Z,1.17
2023-12-29T21:21:10.331Z,0.70
2023-12-29T21:24:13.256Z,0.90
2023-12-29T21:27:15.456Z,1.10
2023-12-29T21:30:17.978Z,1.10
2023-12-29T21:33:20.263Z,1.40
2023-12-29T21:36:26.791Z,1.80
2023-12-29T21:39:29.316Z,0.80
2023-12-29T21:42:31.462Z,0.97
2023-12-29T21:45:33.805Z,1.10
2023-12-29T21:48:38.985Z,1.00
2023-12-29T21:51:41.135Z,1.47
2023-12-29T21:54:44.612Z,1.90
2023-12-29T21:57:47.063Z,5.67
2023-12-29T22:00:50.753Z,5.83
2023-12-29T22:03:53.680Z,3.90
2023-12-29T22:06:55.830Z,2.00
2023-12-29T22:09:57.951Z,1.50
2023-12-29T22:13:00.281Z,1.57
2023-12-29T22:16:04.469Z,5.60
2023-12-29T22:19:07.224Z,2.77
2023-12-29T22:22:09.990Z,2.03
2023-12-29T22:25:12.544Z,1.93
2023-12-29T22:28:15.569Z,2.10
2023-12-29T22:31:20.829Z,1.83
2023-12-29T22:34:25.828Z,1.43
2023-12-29T22:37:28.994Z,2.23
2023-12-29T22:40:34.993Z,2.57
2023-12-29T22:43:37.502Z,1.60
2023-12-29T22:46:39.615Z,1.27
2023-12-29T22:49:41.656Z,1.30
2023-12-29T22:52:44.269Z,1.10
2023-12-29T22:55:46.597Z,1.17
2023-12-29T22:58:50.833Z,1.20
2023-12-29T23:01:53.482Z,1.20
2023-12-29T23:04:55.904Z,1.30
2023-12-29T23:07:58.050Z,1.47
2023-12-29T23:11:00.801Z,1.10
2023-12-29T23:14:02.898Z,1.37
2023-12-29T23:17:10.086Z,1.00
2023-12-29T23:20:12.796Z,1.00
2023-12-29T23:23:15.365Z,1.03
2023-12-29T23:26:17.886Z,0.90
2023-12-29T23:29:19.952Z,0.93
2023-12-29T23:32:24.679Z,0.90
2023-12-29T23:35:26.861Z,0.90
2023-12-29T23:38:30.660Z,1.07
2023-12-29T23:41:33.774Z,1.00
2023-12-29T23:44:35.755Z,0.83
2023-12-29T23:47:37.923Z,1.00
2023-12-29T23:50:40.098Z,0.90
2023-12-29T23:53:42.335Z,0.83
2023-12-29T23:56:44.948Z,0.63
2023-12-29T23:59:47.941Z,1.07
